createdAt,value
2022-09-06T00:00:58.861Z,19.18
2022-09-06T00:03:27.611Z,19.17
2022-09-06T00:05:54.270Z,19.18
2022-09-06T00:08:20.795Z,19.20
2022-09-06T00:10:47.323Z,19.16
2022-09-06T00:13:14.675Z,19.12
2022-09-06T00:15:43.808Z,19.02
2022-09-06T00:18:10.245Z,18.97
2022-09-06T00:20:41.293Z,18.99
2022-09-06T00:23:08.423Z,18.94
2022-09-06T00:25:35.729Z,18.92
2022-09-06T00:28:04.627Z,18.82
2022-09-06T00:30:32.699Z,19.00
2022-09-06T00:32:59.242Z,19.00
2022-09-06T00:35:26.871Z,19.05
2022-09-06T00:38:01.516Z,19.14
2022-09-06T00:40:30.203Z,19.29
2022-09-06T00:42:58.284Z,19.40
2022-09-06T00:45:28.017Z,19.43
2022-09-06T00:47:55.205Z,19.44
2022-09-06T00:50:22.042Z,19.46
2022-09-06T00:52:51.213Z,19.32
2022-09-06T00:55:18.305Z,19.25
2022-09-06T00:57:46.500Z,19.10
2022-09-06T01:00:13.459Z,18.94
2022-09-06T01:02:40.203Z,18.84
2022-09-06T01:05:07.154Z,18.81
2022-09-06T01:07:51.502Z,18.85
2022-09-06T01:10:36.044Z,18.79
2022-09-06T01:13:26.832Z,18.73
2022-09-06T01:16:31.132Z,18.71
2022-09-06T01:19:09.740Z,18.71
2022-09-06T01:22:13.842Z,18.80
2022-09-06T01:24:50.684Z,18.75
2022-09-06T01:27:20.081Z,18.76
2022-09-06T01:30:02.197Z,18.73
2022-09-06T01:32:35.630Z,18.72
2022-09-06T01:35:18.090Z,18.67
2022-09-06T01:37:44.954Z,18.56
2022-09-06T01:40:11.795Z,18.52
2022-09-06T01:42:41.627Z,18.47
2022-09-06T01:45:16.078Z,18.43
2022-09-06T01:48:14.154Z,18.41
2022-09-06T01:50:57.826Z,18.38
2022-09-06T01:53:33.522Z,18.37
2022-09-06T01:56:10.171Z,18.38
2022-09-06T01:58:49.585Z,18.31
2022-09-06T02:01:30.042Z,18.31
2022-09-06T02:04:20.410Z,18.34
2022-09-06T02:06:52.551Z,18.32
2022-09-06T02:09:23.040Z,18.32
2022-09-06T02:11:54.876Z,18.19
2022-09-06T02:14:30.308Z,18.02
2022-09-06T02:16:59.158Z,18.04
2022-09-06T02:19:56.703Z,18.03
2022-09-06T02:22:27.798Z,18.05
2022-09-06T02:24:56.768Z,18.05
2022-09-06T02:27:23.290Z,18.12
2022-09-06T02:29:50.062Z,18.13
2022-09-06T02:32:21.914Z,18.11
2022-09-06T02:34:54.051Z,18.00
2022-09-06T02:37:22.798Z,17.91
2022-09-06T02:39:49.260Z,17.97
2022-09-06T02:42:17.761Z,17.90
2022-09-06T02:44:44.220Z,17.81
2022-09-06T02:47:10.620Z,17.70
2022-09-06T02:49:37.019Z,17.57
2022-09-06T02:52:03.598Z,17.61
2022-09-06T02:54:31.263Z,17.62
2022-09-06T02:56:57.658Z,17.67
2022-09-06T02:59:24.188Z,17.61
2022-09-06T03:01:50.606Z,17.51
2022-09-06T03:04:17.002Z,17.42
2022-09-06T03:06:43.482Z,17.39
2022-09-06T03:09:10.438Z,17.38
2022-09-06T03:11:38.068Z,17.39
2022-09-06T03:14:05.026Z,17.40
2022-09-06T03:16:31.593Z,17.41
2022-09-06T03:18:58.027Z,17.45
2022-09-06T03:21:24.758Z,17.49
2022-09-06T03:23:51.319Z,17.56
2022-09-06T03:26:17.769Z,17.68
2022-09-06T03:28:44.181Z,17.71
2022-09-06T03:31:10.963Z,17.70
2022-09-06T03:33:37.551Z,17.73
2022-09-06T03:36:04.375Z,17.77
2022-09-06T03:38:31.324Z,17.75
2022-09-06T03:40:58.381Z,17.79
2022-09-06T03:43:26.525Z,17.73
2022-09-06T03:45:55.667Z,17.72
2022-09-06T03:48:24.268Z,17.69
2022-09-06T03:50:53.149Z,17.67
2022-09-06T03:53:20.614Z,17.67
2022-09-06T03:55:48.790Z,17.62
2022-09-06T03:58:16.924Z,17.64
2022-09-06T04:00:43.610Z,17.66
2022-09-06T04:03:10.405Z,17.63
2022-09-06T04:05:37.077Z,17.67
2022-09-06T04:08:04.005Z,17.70
2022-09-06T04:10:30.439Z,17.67
2022-09-06T04:12:56.852Z,17.62
2022-09-06T04:15:23.314Z,17.52
2022-09-06T04:17:49.764Z,17.52
2022-09-06T04:20:17.378Z,17.49
2022-09-06T04:22:44.049Z,17.40
2022-09-06T04:25:10.996Z,17.41
2022-09-06T04:27:38.141Z,17.41
2022-09-06T04:30:05.013Z,17.39
2022-09-06T04:32:32.687Z,17.42
2022-09-06T04:34:59.233Z,17.40
2022-09-06T04:37:25.661Z,17.45
2022-09-06T04:39:52.302Z,17.44
2022-09-06T04:42:18.835Z,17.41
2022-09-06T04:44:45.244Z,17.33
2022-09-06T04:47:15.935Z,17.31
2022-09-06T04:49:42.635Z,17.24
2022-09-06T04:52:09.362Z,17.25
2022-09-06T04:54:35.987Z,17.24
2022-09-06T04:57:02.878Z,17.21
2022-09-06T04:59:29.610Z,17.09
2022-09-06T05:01:56.275Z,17.07
2022-09-06T05:04:22.798Z,17.11
2022-09-06T05:06:49.333Z,17.11
2022-09-06T05:09:15.992Z,16.99
2022-09-06T05:11:42.442Z,17.00
2022-09-06T05:14:08.868Z,16.99
2022-09-06T05:16:35.381Z,17.00
2022-09-06T05:19:01.955Z,16.92
2022-09-06T05:21:28.364Z,16.92
2022-09-06T05:23:58.490Z,16.94
2022-09-06T05:26:25.429Z,16.97
2022-09-06T05:28:51.868Z,16.98
2022-09-06T05:31:29.520Z,16.84
2022-09-06T05:33:57.606Z,17.02
2022-09-06T05:36:25.474Z,17.00
2022-09-06T05:38:53.258Z,17.06
2022-09-06T05:41:20.046Z,17.04
2022-09-06T05:43:46.637Z,17.06
2022-09-06T05:46:13.708Z,17.06
2022-09-06T05:48:40.196Z,17.13
2022-09-06T05:51:09.364Z,17.12
2022-09-06T05:53:36.857Z,17.19
2022-09-06T05:56:04.713Z,17.20
2022-09-06T05:58:31.421Z,17.27
2022-09-06T06:01:17.454Z,17.30
2022-09-06T06:03:51.051Z,17.35
2022-09-06T06:06:17.745Z,17.33
2022-09-06T06:08:45.448Z,17.37
2022-09-06T06:11:12.398Z,17.32
2022-09-06T06:13:39.746Z,17.47
2022-09-06T06:16:08.165Z,17.54
2022-09-06T06:18:34.953Z,17.56
2022-09-06T06:21:15.382Z,17.61
2022-09-06T06:23:44.224Z,17.67
2022-09-06T06:26:12.220Z,17.69
2022-09-06T06:28:39.665Z,17.75
2022-09-06T06:31:08.754Z,17.67
2022-09-06T06:33:36.372Z,17.87
2022-09-06T06:36:13.368Z,17.94
2022-09-06T06:38:43.643Z,18.09
2022-09-06T06:41:13.020Z,18.18
2022-09-06T06:43:39.911Z,18.28
2022-09-06T06:46:17.476Z,18.36
2022-09-06T06:48:45.524Z,18.49
2022-09-06T06:51:17.426Z,18.60
2022-09-06T06:53:49.030Z,18.64
2022-09-06T06:56:28.272Z,18.68
2022-09-06T06:58:57.625Z,18.85
2022-09-06T07:01:26.279Z,18.85
2022-09-06T07:03:53.178Z,18.97
2022-09-06T07:06:20.358Z,19.05
2022-09-06T07:08:47.491Z,19.14
2022-09-06T07:11:15.814Z,19.18
2022-09-06T07:13:42.375Z,19.31
2022-09-06T07:16:20.394Z,19.30
2022-09-06T07:18:47.801Z,19.29
2022-09-06T07:24:06.079Z,19.60
2022-09-06T07:26:34.640Z,19.71
2022-09-06T07:29:04.927Z,19.86
2022-09-06T07:34:20.451Z,19.86
2022-09-06T07:36:47.129Z,19.86
2022-09-06T07:39:14.181Z,19.93
2022-09-06T07:41:40.647Z,20.06
2022-09-06T07:44:07.178Z,20.20
2022-09-06T07:46:33.705Z,20.33
2022-09-06T07:49:00.174Z,20.44
2022-09-06T07:51:26.601Z,20.57
2022-09-06T07:54:12.895Z,20.76
2022-09-06T07:56:41.930Z,20.87
2022-09-06T07:59:09.255Z,21.07
2022-09-06T08:01:39.943Z,21.18
2022-09-06T08:04:09.112Z,21.18
2022-09-06T08:09:25.100Z,21.20
2022-09-06T08:11:52.724Z,21.14
2022-09-06T08:14:19.901Z,21.09
2022-09-06T08:16:46.507Z,21.06
2022-09-06T08:19:12.974Z,20.99
2022-09-06T08:21:39.507Z,21.08
2022-09-06T08:24:07.797Z,21.13
2022-09-06T08:26:36.369Z,21.08
2022-09-06T08:29:06.833Z,21.22
2022-09-06T08:31:35.372Z,21.40
2022-09-06T08:34:02.440Z,21.46
2022-09-06T08:36:30.586Z,21.49
2022-09-06T08:39:02.643Z,21.68
2022-09-06T08:41:38.276Z,22.13
2022-09-06T08:47:18.686Z,22.20
2022-09-06T08:49:47.834Z,22.36
2022-09-06T08:52:32.941Z,22.18
2022-09-06T08:55:40.462Z,21.90
2022-09-06T08:58:22.291Z,22.09
2022-09-06T09:00:58.475Z,22.04
2022-09-06T09:03:33.271Z,22.00
2022-09-06T09:06:01.629Z,22.25
2022-09-06T09:09:04.316Z,22.85
2022-09-06T09:11:33.494Z,23.34
2022-09-06T09:14:16.074Z,23.49
2022-09-06T09:16:43.170Z,24.00
2022-09-06T09:19:09.821Z,24.21
2022-09-06T09:21:40.077Z,23.85
2022-09-06T09:24:12.317Z,23.49
2022-09-06T09:27:13.363Z,23.07
2022-09-06T09:32:49.514Z,22.70
2022-09-06T09:35:20.398Z,23.02
2022-09-06T09:37:48.701Z,23.24
2022-09-06T09:40:26.005Z,23.22
2022-09-06T09:42:54.819Z,22.94
2022-09-06T09:45:22.556Z,22.74
2022-09-06T09:47:49.049Z,22.90
2022-09-06T09:50:34.583Z,23.79
2022-09-06T09:53:10.895Z,24.29
2022-09-06T09:55:38.487Z,24.01
2022-09-06T09:58:06.509Z,23.73
2022-09-06T10:00:35.499Z,23.63
2022-09-06T10:03:18.990Z,23.80
2022-09-06T10:06:02.236Z,24.07
2022-09-06T10:08:32.763Z,24.25
2022-09-06T10:10:59.429Z,24.22
2022-09-06T10:13:30.862Z,24.05
2022-09-06T10:15:59.590Z,23.77
2022-09-06T10:18:31.024Z,23.82
2022-09-06T10:21:05.407Z,23.96
2022-09-06T10:26:55.707Z,24.06
2022-09-06T10:29:48.035Z,23.96
2022-09-06T10:32:39.389Z,23.78
2022-09-06T10:35:09.449Z,23.76
2022-09-06T10:37:54.745Z,23.65
2022-09-06T10:40:32.013Z,23.57
2022-09-06T10:43:01.511Z,23.55
2022-09-06T10:45:29.762Z,23.83
2022-09-06T10:48:16.233Z,23.95
2022-09-06T10:51:03.981Z,24.00
2022-09-06T10:53:46.310Z,24.15
2022-09-06T10:56:18.911Z,24.06
2022-09-06T11:01:57.149Z,23.94
2022-09-06T11:04:31.105Z,23.84
2022-09-06T11:07:02.430Z,23.87
2022-09-06T11:09:55.107Z,24.16
2022-09-06T11:12:33.798Z,24.26
2022-09-06T11:15:05.863Z,24.27
2022-09-06T11:17:54.554Z,24.39
2022-09-06T11:20:44.949Z,24.33
2022-09-06T11:23:33.225Z,24.31
2022-09-06T11:26:26.968Z,24.25
2022-09-06T11:29:03.114Z,24.36
2022-09-06T11:34:35.188Z,24.37
2022-09-06T11:37:04.606Z,24.24
2022-09-06T11:42:45.925Z,24.51
2022-09-06T11:45:17.943Z,24.48
2022-09-06T11:47:48.168Z,24.62
2022-09-06T11:50:20.894Z,24.61
2022-09-06T11:53:06.089Z,24.57
2022-09-06T11:55:39.259Z,24.66
2022-09-06T11:58:12.318Z,24.67
2022-09-06T12:00:38.731Z,24.55
2022-09-06T12:06:17.664Z,24.56
2022-09-06T12:08:44.608Z,24.54
2022-09-06T12:11:30.568Z,24.59
2022-09-06T12:14:03.812Z,24.56
2022-09-06T12:17:01.946Z,24.49
2022-09-06T12:19:48.899Z,24.39
2022-09-06T12:22:27.418Z,24.38
2022-09-06T12:24:56.803Z,24.31
2022-09-06T12:27:26.863Z,24.23
2022-09-06T12:29:59.312Z,24.26
2022-09-06T12:32:34.909Z,24.16
2022-09-06T12:38:01.109Z,24.06
2022-09-06T12:40:31.947Z,24.06
2022-09-06T12:42:58.915Z,24.07
2022-09-06T12:45:27.540Z,24.12
2022-09-06T12:48:10.595Z,24.16
2022-09-06T12:50:38.306Z,24.10
2022-09-06T12:53:23.628Z,24.03
2022-09-06T12:56:02.997Z,24.07
2022-09-06T12:58:30.752Z,24.08
2022-09-06T13:01:04.070Z,24.08
2022-09-06T13:03:53.955Z,24.05
2022-09-06T13:06:26.821Z,24.00
2022-09-06T13:08:57.123Z,24.05
2022-09-06T13:11:30.771Z,23.85
2022-09-06T13:13:57.946Z,24.03
2022-09-06T13:16:27.832Z,24.00
2022-09-06T13:18:54.610Z,23.99
2022-09-06T13:21:32.881Z,23.95
2022-09-06T13:24:03.882Z,24.00
2022-09-06T13:26:40.136Z,23.97
2022-09-06T13:29:23.320Z,23.86
2022-09-06T13:31:52.401Z,23.88
2022-09-06T13:34:26.161Z,23.85
2022-09-06T13:36:55.869Z,23.84
2022-09-06T13:39:39.667Z,23.71
2022-09-06T13:42:07.556Z,23.78
2022-09-06T13:44:36.826Z,23.71
2022-09-06T13:47:03.761Z,23.81
2022-09-06T13:49:31.263Z,23.85
2022-09-06T13:52:00.408Z,23.75
2022-09-06T13:54:27.027Z,23.81
2022-09-06T13:56:53.875Z,23.83
2022-09-06T13:59:20.427Z,23.79
2022-09-06T14:01:49.849Z,23.68
2022-09-06T14:04:21.355Z,23.78
2022-09-06T14:06:48.887Z,23.82
2022-09-06T14:09:15.529Z,23.84
2022-09-06T14:11:47.514Z,23.86
2022-09-06T14:14:15.047Z,23.80
2022-09-06T14:16:41.516Z,23.77
2022-09-06T14:19:07.971Z,23.83
2022-09-06T14:21:34.740Z,23.84
2022-09-06T14:24:04.367Z,23.78
2022-09-06T14:26:32.058Z,23.82
2022-09-06T14:28:58.513Z,23.84
2022-09-06T14:31:27.869Z,23.78
2022-09-06T14:33:55.958Z,23.79
2022-09-06T14:36:24.854Z,23.71
2022-09-06T14:38:51.578Z,23.67
2022-09-06T14:41:19.705Z,23.58
2022-09-06T14:43:53.160Z,23.65
2022-09-06T14:46:22.094Z,23.67
2022-09-06T14:48:49.323Z,23.66
2022-09-06T14:51:22.538Z,23.63
2022-09-06T14:53:53.258Z,23.65
2022-09-06T14:56:20.909Z,23.71
2022-09-06T14:58:47.445Z,23.70
2022-09-06T15:01:15.154Z,23.72
2022-09-06T15:03:46.714Z,23.73
2022-09-06T15:06:13.336Z,23.69
2022-09-06T15:08:39.786Z,23.71
2022-09-06T15:11:08.347Z,23.66
2022-09-06T15:13:40.383Z,23.65
2022-09-06T15:16:08.660Z,23.69
2022-09-06T15:18:35.325Z,23.76
2022-09-06T15:21:10.246Z,23.83
2022-09-06T15:23:37.185Z,23.84
2022-09-06T15:26:07.252Z,23.92
2022-09-06T15:28:38.875Z,23.90
2022-09-06T15:31:06.547Z,23.82
2022-09-06T15:33:35.546Z,23.87
2022-09-06T15:36:08.501Z,23.86
2022-09-06T15:38:44.023Z,23.75
2022-09-06T15:41:12.894Z,23.71
2022-09-06T15:43:42.286Z,23.74
2022-09-06T15:46:09.916Z,23.75
2022-09-06T15:48:45.894Z,23.56
2022-09-06T15:51:15.960Z,23.71
2022-09-06T15:53:42.629Z,23.65
2022-09-06T15:56:12.577Z,23.50
2022-09-06T15:58:39.509Z,23.54
2022-09-06T16:01:11.637Z,23.51
2022-09-06T16:03:42.007Z,23.45
2022-09-06T16:06:29.357Z,23.31
2022-09-06T16:09:00.016Z,23.43
2022-09-06T16:11:28.315Z,23.50
2022-09-06T16:13:55.500Z,23.49
2022-09-06T16:16:22.774Z,23.48
2022-09-06T16:18:49.557Z,23.44
2022-09-06T16:21:23.799Z,23.38
2022-09-06T16:23:53.450Z,23.56
2022-09-06T16:26:21.658Z,23.53
2022-09-06T16:28:50.031Z,23.46
2022-09-06T16:31:17.348Z,23.36
2022-09-06T16:33:45.516Z,23.33
2022-09-06T16:36:12.978Z,23.27
2022-09-06T16:38:40.999Z,23.22
2022-09-06T16:41:18.294Z,23.18
2022-09-06T16:43:45.808Z,23.13
2022-09-06T16:46:12.770Z,23.08
2022-09-06T16:48:42.003Z,23.06
2022-09-06T16:51:15.764Z,23.05
2022-09-06T16:53:44.636Z,22.89
2022-09-06T16:56:14.634Z,23.02
2022-09-06T16:58:41.942Z,22.98
2022-09-06T17:01:09.985Z,22.93
2022-09-06T17:03:37.837Z,22.84
2022-09-06T17:06:05.356Z,22.92
2022-09-06T17:08:32.433Z,22.92
2022-09-06T17:11:06.786Z,22.80
2022-09-06T17:13:33.658Z,22.89
2022-09-06T17:16:22.175Z,22.89
2022-09-06T17:18:50.123Z,22.88
2022-09-06T17:21:16.684Z,22.88
2022-09-06T17:23:43.564Z,22.75
2022-09-06T17:26:10.038Z,22.66
2022-09-06T17:28:38.286Z,22.57
2022-09-06T17:31:05.537Z,22.63
2022-09-06T17:33:32.315Z,22.57
2022-09-06T17:36:17.004Z,22.53
2022-09-06T17:38:44.647Z,22.46
2022-09-06T17:41:31.008Z,22.44
2022-09-06T17:43:58.685Z,22.38
2022-09-06T17:46:28.875Z,22.39
2022-09-06T17:48:56.279Z,22.32
2022-09-06T17:51:24.301Z,22.43
2022-09-06T17:53:52.148Z,22.43
2022-09-06T17:56:19.552Z,22.41
2022-09-06T17:58:55.187Z,22.19
2022-09-06T18:01:23.743Z,22.19
2022-09-06T18:03:50.290Z,22.14
2022-09-06T18:06:20.072Z,22.06
2022-09-06T18:08:50.402Z,21.99
2022-09-06T18:11:28.937Z,21.87
2022-09-06T18:14:04.693Z,21.81
2022-09-06T18:16:32.587Z,21.92
2022-09-06T18:19:01.384Z,21.85
2022-09-06T18:21:30.921Z,21.78
2022-09-06T18:23:57.811Z,21.72
2022-09-06T18:26:25.140Z,21.65
2022-09-06T18:28:53.410Z,21.59
2022-09-06T18:31:22.376Z,21.53
2022-09-06T18:33:48.948Z,21.52
2022-09-06T18:36:16.593Z,21.55
2022-09-06T18:38:43.457Z,21.56
2022-09-06T18:41:34.596Z,21.54
2022-09-06T18:44:02.896Z,21.59
2022-09-06T18:46:34.241Z,21.57
2022-09-06T18:49:01.040Z,21.54
2022-09-06T18:51:28.127Z,21.46
2022-09-06T18:53:56.945Z,21.40
2022-09-06T18:56:24.054Z,21.36
2022-09-06T18:58:53.435Z,21.30
2022-09-06T19:01:20.968Z,21.22
2022-09-06T19:03:47.493Z,21.16
2022-09-06T19:06:19.836Z,21.13
2022-09-06T19:08:46.942Z,21.13
2022-09-06T19:11:16.961Z,21.03
2022-09-06T19:13:45.427Z,21.10
2022-09-06T19:16:13.801Z,21.14
2022-09-06T19:18:41.386Z,21.13
2022-09-06T19:21:13.828Z,21.13
2022-09-06T19:23:42.271Z,21.11
2022-09-06T19:26:19.801Z,21.14
2022-09-06T19:28:54.779Z,21.14
2022-09-06T19:31:22.307Z,21.13
2022-09-06T19:33:50.106Z,21.17
2022-09-06T19:36:18.428Z,21.19
2022-09-06T19:41:34.262Z,21.12
2022-09-06T19:44:01.605Z,21.25
2022-09-06T19:46:28.504Z,21.25
2022-09-06T19:48:58.846Z,21.26
2022-09-06T19:51:25.455Z,21.23
2022-09-06T19:53:53.766Z,21.30
2022-09-06T19:56:22.700Z,21.30
2022-09-06T19:58:57.231Z,21.22
2022-09-06T20:01:25.806Z,21.29
2022-09-06T20:03:53.041Z,21.33
2022-09-06T20:06:19.891Z,21.33
2022-09-06T20:08:50.717Z,21.33
2022-09-06T20:11:18.195Z,21.35
2022-09-06T20:13:44.889Z,21.33
2022-09-06T20:16:12.924Z,21.33
2022-09-06T20:18:40.233Z,21.21
2022-09-06T20:21:07.820Z,21.20
2022-09-06T20:23:35.428Z,21.09
2022-09-06T20:26:05.655Z,21.06
2022-09-06T20:28:47.327Z,21.06
2022-09-06T20:31:25.367Z,21.00
2022-09-06T20:38:46.853Z,20.90
2022-09-06T20:41:17.777Z,20.80
2022-09-06T20:43:44.894Z,20.91
2022-09-06T20:46:14.592Z,20.91
2022-09-06T20:48:44.708Z,20.92
2022-09-06T20:51:15.602Z,20.84
2022-09-06T20:53:42.371Z,20.81
2022-09-06T20:56:14.765Z,20.83
2022-09-06T20:58:42.017Z,20.75
2022-09-06T21:01:10.907Z,20.69
2022-09-06T21:03:39.652Z,20.65
2022-09-06T21:06:10.557Z,20.54
2022-09-06T21:08:41.853Z,20.33
2022-09-06T21:11:09.785Z,20.12
2022-09-06T21:13:37.081Z,19.87
2022-09-06T21:16:05.803Z,19.67
2022-09-06T21:18:33.394Z,19.58
2022-09-06T21:21:01.159Z,19.39
2022-09-06T21:23:30.105Z,19.45
2022-09-06T21:26:02.531Z,19.25
2022-09-06T21:28:31.191Z,19.28
2022-09-06T21:31:14.330Z,19.29
2022-09-06T21:33:55.101Z,19.24
2022-09-06T21:36:24.217Z,19.30
2022-09-06T21:38:55.387Z,19.84
2022-09-06T21:41:22.868Z,20.16
2022-09-06T21:43:54.081Z,19.86
2022-09-06T21:46:22.136Z,19.30
2022-09-06T21:48:50.511Z,18.69
2022-09-06T21:51:20.855Z,18.43
2022-09-06T21:53:49.644Z,18.43
2022-09-06T21:56:19.508Z,18.44
2022-09-06T21:58:49.953Z,18.56
2022-09-06T22:01:16.475Z,18.57
2022-09-06T22:03:42.960Z,18.54
2022-09-06T22:06:11.465Z,18.51
2022-09-06T22:08:38.768Z,18.45
2022-09-06T22:11:11.491Z,18.45
2022-09-06T22:13:38.044Z,18.48
2022-09-06T22:16:07.883Z,18.47
2022-09-06T22:18:35.338Z,18.41
2022-09-06T22:21:10.710Z,18.39
2022-09-06T22:23:38.552Z,18.21
2022-09-06T22:26:09.423Z,18.14
2022-09-06T22:28:36.882Z,18.01
2022-09-06T22:31:04.042Z,17.93
2022-09-06T22:33:30.725Z,17.92
2022-09-06T22:35:59.631Z,17.86
2022-09-06T22:38:27.084Z,17.87
2022-09-06T22:40:57.242Z,17.87
2022-09-06T22:43:24.619Z,17.90
2022-09-06T22:45:52.118Z,17.89
2022-09-06T22:48:19.385Z,17.87
2022-09-06T22:50:46.403Z,17.84
2022-09-06T22:53:12.788Z,17.74
2022-09-06T22:55:39.282Z,17.71
2022-09-06T22:58:05.867Z,17.60
2022-09-06T23:00:36.002Z,17.56
2022-09-06T23:03:03.637Z,17.54
2022-09-06T23:05:33.416Z,17.54
2022-09-06T23:08:01.664Z,17.48
2022-09-06T23:10:29.781Z,17.46
2022-09-06T23:12:57.286Z,17.42
2022-09-06T23:15:23.722Z,17.38
2022-09-06T23:17:50.202Z,17.34
2022-09-06T23:20:17.155Z,17.36
2022-09-06T23:22:43.636Z,17.28
2022-09-06T23:25:10.393Z,17.33
2022-09-06T23:27:36.850Z,17.34
2022-09-06T23:30:04.314Z,17.24
2022-09-06T23:32:31.942Z,17.23
2022-09-06T23:34:58.393Z,17.04
2022-09-06T23:37:24.881Z,16.97
2022-09-06T23:39:52.377Z,16.99
2022-09-06T23:42:19.427Z,16.96
2022-09-06T23:44:45.875Z,16.99
2022-09-06T23:47:12.337Z,16.88
2022-09-06T23:49:38.889Z,16.83
2022-09-06T23:52:05.678Z,16.78
2022-09-06T23:54:32.128Z,16.76
2022-09-06T23:56:58.671Z,16.50
2022-09-06T23:59:25.138Z,16.37
